createdAt,value
2023-04-26T00:00:48.958Z,100.00
2023-04-26T00:03:16.781Z,100.00
2023-04-26T00:05:44.805Z,100.00
2023-04-26T00:08:12.718Z,100.00
2023-04-26T00:10:41.774Z,100.00
2023-04-26T00:13:09.442Z,100.00
2023-04-26T00:15:37.132Z,100.00
2023-04-26T00:18:05.164Z,100.00
2023-04-26T00:20:32.926Z,100.00
2023-04-26T00:23:00.682Z,100.00
2023-04-26T00:25:28.363Z,100.00
2023-04-26T00:29:39.439Z,100.00
2023-04-26T00:32:07.438Z,100.00
2023-04-26T00:34:35.932Z,100.00
2023-04-26T00:37:04.249Z,100.00
2023-04-26T00:39:32.277Z,100.00
2023-04-26T00:41:59.996Z,100.00
2023-04-26T00:44:27.718Z,100.00
2023-04-26T00:46:56.864Z,100.00
2023-04-26T00:49:26.354Z,100.00
2023-04-26T00:51:54.791Z,100.00
2023-04-26T00:54:22.758Z,100.00
2023-04-26T00:56:52.134Z,100.00
2023-04-26T00:59:21.157Z,100.00
2023-04-26T01:01:49.412Z,100.00
2023-04-26T01:04:19.250Z,100.00
2023-04-26T01:06:47.291Z,100.00
2023-04-26T01:09:15.612Z,100.00
2023-04-26T01:11:44.444Z,100.00
2023-04-26T01:14:12.340Z,100.00
2023-04-26T01:16:40.886Z,100.00
2023-04-26T01:19:10.893Z,100.00
2023-04-26T01:21:40.514Z,100.00
2023-04-26T01:24:10.984Z,100.00
2023-04-26T01:26:44.117Z,100.00
2023-04-26T01:29:15.852Z,100.00
2023-04-26T01:31:43.706Z,100.00
2023-04-26T01:34:11.863Z,100.00
2023-04-26T01:36:39.617Z,100.00
2023-04-26T01:39:09.336Z,100.00
2023-04-26T01:41:37.005Z,100.00
2023-04-26T01:44:04.894Z,100.00
2023-04-26T01:46:32.656Z,100.00
2023-04-26T01:49:00.477Z,100.00
2023-04-26T01:51:28.231Z,100.00
2023-04-26T01:53:55.916Z,100.00
2023-04-26T01:56:25.432Z,100.00
2023-04-26T01:58:53.390Z,100.00
2023-04-26T02:01:21.563Z,100.00
2023-04-26T02:03:49.635Z,100.00
2023-04-26T02:06:17.464Z,100.00
2023-04-26T02:08:45.117Z,100.00
2023-04-26T02:11:12.803Z,100.00
2023-04-26T02:13:41.806Z,100.00
2023-04-26T02:16:09.607Z,100.00
2023-04-26T02:18:37.270Z,100.00
2023-04-26T02:21:09.399Z,100.00
2023-04-26T02:23:37.087Z,100.00
2023-04-26T02:26:05.187Z,100.00
2023-04-26T02:28:32.929Z,100.00
2023-04-26T02:31:03.328Z,100.00
2023-04-26T02:33:31.341Z,100.00
2023-04-26T02:35:59.097Z,100.00
2023-04-26T02:38:27.336Z,100.00
2023-04-26T02:40:59.636Z,100.00
2023-04-26T02:43:27.331Z,100.00
2023-04-26T02:45:55.033Z,100.00
2023-04-26T02:48:24.068Z,100.00
2023-04-26T02:50:52.354Z,100.00
2023-04-26T02:53:20.160Z,100.00
2023-04-26T02:55:47.914Z,100.00
2023-04-26T02:58:15.616Z,100.00
2023-04-26T03:00:47.210Z,100.00
2023-04-26T03:03:15.159Z,100.00
2023-04-26T03:05:44.430Z,100.00
2023-04-26T03:08:12.081Z,100.00
2023-04-26T03:10:39.686Z,100.00
2023-04-26T03:13:07.310Z,100.00
2023-04-26T03:15:35.038Z,100.00
2023-04-26T03:18:02.826Z,100.00
2023-04-26T03:20:30.554Z,100.00
2023-04-26T03:22:59.592Z,100.00
2023-04-26T03:25:27.360Z,100.00
2023-04-26T03:27:55.407Z,100.00
2023-04-26T03:30:23.142Z,100.00
2023-04-26T03:32:50.900Z,100.00
2023-04-26T03:35:18.607Z,100.00
2023-04-26T03:37:46.275Z,100.00
2023-04-26T03:40:17.060Z,100.00
2023-04-26T03:42:44.767Z,100.00
2023-04-26T03:45:12.717Z,100.00
2023-04-26T03:47:40.363Z,100.00
2023-04-26T03:50:09.676Z,100.00
2023-04-26T03:52:37.405Z,100.00
2023-04-26T03:55:05.561Z,100.00
2023-04-26T03:57:34.622Z,100.00
2023-04-26T04:00:02.324Z,100.00
2023-04-26T04:02:30.077Z,100.00
2023-04-26T04:04:57.951Z,100.00
2023-04-26T04:07:25.760Z,100.00
2023-04-26T04:09:53.468Z,100.00
2023-04-26T04:12:22.951Z,100.00
2023-04-26T04:14:52.480Z,100.00
2023-04-26T04:17:20.266Z,100.00
2023-04-26T04:19:47.937Z,100.00
2023-04-26T04:22:15.650Z,100.00
2023-04-26T04:24:44.222Z,100.00
2023-04-26T04:27:11.939Z,100.00
2023-04-26T04:29:40.964Z,100.00
2023-04-26T04:32:10.153Z,100.00
2023-04-26T04:34:37.963Z,100.00
2023-04-26T04:37:05.691Z,100.00
2023-04-26T04:39:33.349Z,100.00
2023-04-26T04:42:01.113Z,100.00
2023-04-26T04:44:28.766Z,100.00
2023-04-26T04:46:56.792Z,100.00
2023-04-26T04:49:26.005Z,100.00
2023-04-26T04:51:53.662Z,100.00
2023-04-26T04:54:21.427Z,100.00
2023-04-26T04:56:49.158Z,99.67
2023-04-26T04:59:16.893Z,98.76
2023-04-26T05:01:45.379Z,97.46
2023-04-26T05:04:13.703Z,96.61
2023-04-26T05:06:42.826Z,98.80
2023-04-26T05:09:11.463Z,98.58
2023-04-26T05:11:39.239Z,99.22
2023-04-26T05:14:07.154Z,97.33
2023-04-26T05:16:34.866Z,95.98
2023-04-26T05:19:02.751Z,96.25
2023-04-26T05:21:31.592Z,94.81
2023-04-26T05:24:00.638Z,94.55
2023-04-26T05:26:28.408Z,95.30
2023-04-26T05:28:56.199Z,95.54
2023-04-26T05:31:24.470Z,92.14
2023-04-26T05:33:52.453Z,90.21
2023-04-26T05:36:21.287Z,85.49
2023-04-26T05:38:49.268Z,81.00
2023-04-26T05:41:18.412Z,80.33
2023-04-26T05:43:47.096Z,79.89
2023-04-26T05:46:14.860Z,81.03
2023-04-26T05:48:42.696Z,78.36
2023-04-26T05:51:10.467Z,72.21
2023-04-26T05:53:38.168Z,70.11
2023-04-26T05:56:07.025Z,65.57
2023-04-26T05:58:36.158Z,58.94
2023-04-26T06:01:03.906Z,60.06
2023-04-26T06:03:31.810Z,60.38
2023-04-26T06:06:00.557Z,59.00
2023-04-26T06:08:28.801Z,58.20
2023-04-26T06:10:56.620Z,57.74
2023-04-26T06:13:24.387Z,58.14
2023-04-26T06:15:54.429Z,56.42
2023-04-26T06:18:22.156Z,57.85
2023-04-26T06:20:49.926Z,56.60
2023-04-26T06:23:20.199Z,54.22
2023-04-26T06:25:48.129Z,53.61
2023-04-26T06:28:15.855Z,52.59
2023-04-26T06:30:43.994Z,50.86
2023-04-26T06:33:13.105Z,51.95
2023-04-26T06:35:41.399Z,54.64
2023-04-26T06:38:09.438Z,55.50
2023-04-26T06:40:37.905Z,55.05
2023-04-26T06:45:33.664Z,53.54
2023-04-26T06:48:03.006Z,54.81
2023-04-26T06:50:32.199Z,56.16
2023-04-26T06:52:59.894Z,56.25
2023-04-26T06:55:27.664Z,57.01
2023-04-26T06:57:55.478Z,56.59
2023-04-26T07:00:23.775Z,59.22
2023-04-26T07:02:51.645Z,62.55
2023-04-26T07:05:19.631Z,64.12
2023-04-26T07:07:50.093Z,65.88
2023-04-26T07:10:18.332Z,66.34
2023-04-26T07:12:46.001Z,66.26
2023-04-26T07:15:13.789Z,64.21
2023-04-26T07:17:41.519Z,64.91
2023-04-26T07:20:10.421Z,64.85
2023-04-26T07:22:38.137Z,64.53
2023-04-26T07:25:07.817Z,70.95
2023-04-26T07:27:35.575Z,72.88
2023-04-26T07:30:03.409Z,68.59
2023-04-26T07:32:31.128Z,63.17
2023-04-26T07:34:58.952Z,61.02
2023-04-26T07:37:26.648Z,57.98
2023-04-26T07:39:54.295Z,55.73
2023-04-26T07:42:23.377Z,58.30
2023-04-26T07:44:51.172Z,56.13
2023-04-26T07:47:18.889Z,58.33
2023-04-26T07:49:47.761Z,58.96
2023-04-26T07:52:15.696Z,57.89
2023-04-26T07:54:43.408Z,57.26
2023-04-26T07:57:11.272Z,57.75
2023-04-26T07:59:40.354Z,58.24
2023-04-26T08:02:08.210Z,58.57
2023-04-26T08:04:36.682Z,59.05
2023-04-26T08:07:04.484Z,58.62
2023-04-26T08:09:32.285Z,60.07
2023-04-26T08:12:00.128Z,57.56
2023-04-26T08:14:28.824Z,56.03
2023-04-26T08:16:57.949Z,54.51
2023-04-26T08:19:26.877Z,53.55
2023-04-26T08:21:54.609Z,60.02
2023-04-26T08:24:22.562Z,57.58
2023-04-26T08:26:50.236Z,54.36
2023-04-26T08:29:18.739Z,55.13
2023-04-26T08:31:46.522Z,54.51
2023-04-26T08:34:15.601Z,54.36
2023-04-26T08:36:43.343Z,54.04
2023-04-26T08:39:12.270Z,53.95
2023-04-26T08:41:44.287Z,53.17
2023-04-26T08:44:12.281Z,54.19
2023-04-26T08:46:44.700Z,52.55
2023-04-26T08:49:18.497Z,58.45
2023-04-26T08:51:46.762Z,58.12
2023-04-26T08:54:17.585Z,56.63
2023-04-26T08:56:45.706Z,55.69
2023-04-26T08:59:15.146Z,54.86
2023-04-26T09:01:45.024Z,51.98
2023-04-26T09:04:13.543Z,52.98
2023-04-26T09:06:43.015Z,51.80
2023-04-26T09:09:12.530Z,51.54
2023-04-26T09:11:56.680Z,49.77
2023-04-26T09:14:24.696Z,49.54
2023-04-26T09:16:53.168Z,47.26
2023-04-26T09:19:36.064Z,50.37
2023-04-26T09:22:06.327Z,48.36
2023-04-26T09:24:50.733Z,47.26
2023-04-26T09:27:18.469Z,46.55
2023-04-26T09:29:59.785Z,45.05
2023-04-26T09:32:29.168Z,47.65
2023-04-26T09:34:56.925Z,47.46
2023-04-26T09:37:26.082Z,45.94
2023-04-26T09:39:53.794Z,44.51
2023-04-26T09:42:21.522Z,44.21
2023-04-26T09:44:49.262Z,45.14
2023-04-26T09:47:16.903Z,44.46
2023-04-26T09:49:48.592Z,43.88
2023-04-26T09:52:16.484Z,46.07
2023-04-26T09:54:49.781Z,45.59
2023-04-26T09:57:19.608Z,45.34
2023-04-26T09:59:48.809Z,44.93
2023-04-26T10:02:19.474Z,45.61
2023-04-26T10:04:49.504Z,45.05
2023-04-26T10:07:19.216Z,45.12
2023-04-26T10:09:48.696Z,42.97
2023-04-26T10:12:17.777Z,43.34
2023-04-26T10:14:46.875Z,43.63
2023-04-26T10:17:15.035Z,41.51
2023-04-26T10:19:45.037Z,42.58
2023-04-26T10:22:16.639Z,41.17
2023-04-26T10:24:45.777Z,41.94
2023-04-26T10:27:15.052Z,40.02
2023-04-26T10:30:12.175Z,40.46
2023-04-26T10:33:16.285Z,39.65
2023-04-26T10:36:05.736Z,42.84
2023-04-26T10:38:34.175Z,43.17
2023-04-26T10:41:30.943Z,42.09
2023-04-26T10:44:01.575Z,40.85
2023-04-26T10:46:40.260Z,42.14
2023-04-26T10:49:18.480Z,43.80
2023-04-26T10:52:12.633Z,43.98
2023-04-26T10:54:48.098Z,43.22
2023-04-26T10:57:15.967Z,41.78
2023-04-26T11:00:20.880Z,41.04
2023-04-26T11:02:58.771Z,41.35
2023-04-26T11:05:43.574Z,41.07
2023-04-26T11:08:17.556Z,40.03
2023-04-26T11:10:47.475Z,42.54
2023-04-26T11:13:15.269Z,45.63
2023-04-26T11:15:44.501Z,45.93
2023-04-26T11:18:12.259Z,44.86
2023-04-26T11:20:40.116Z,44.11
2023-04-26T11:23:08.975Z,44.33
2023-04-26T11:25:36.844Z,45.44
2023-04-26T11:28:04.832Z,44.90
2023-04-26T11:30:32.912Z,44.77
2023-04-26T11:33:02.804Z,43.98
2023-04-26T11:35:30.945Z,43.57
2023-04-26T11:38:01.832Z,42.66
2023-04-26T11:40:30.875Z,42.11
2023-04-26T11:43:01.745Z,42.22
2023-04-26T11:45:29.566Z,44.57
2023-04-26T11:47:58.202Z,44.72
2023-04-26T11:50:28.245Z,42.57
2023-04-26T11:52:56.903Z,44.13
2023-04-26T11:55:29.444Z,41.87
2023-04-26T11:57:57.849Z,41.52
2023-04-26T12:00:26.788Z,43.15
2023-04-26T12:02:55.783Z,44.01
2023-04-26T12:05:30.614Z,42.77
2023-04-26T12:08:00.668Z,44.13
2023-04-26T12:10:29.544Z,44.33
2023-04-26T12:13:00.217Z,45.52
2023-04-26T12:15:31.762Z,43.49
2023-04-26T12:18:01.454Z,44.17
2023-04-26T12:20:32.377Z,45.25
2023-04-26T12:23:04.680Z,43.99
2023-04-26T12:25:33.224Z,42.44
2023-04-26T12:28:01.657Z,42.17
2023-04-26T12:30:31.362Z,41.71
2023-04-26T12:33:09.256Z,42.23
2023-04-26T12:35:44.642Z,41.77
2023-04-26T12:38:13.336Z,43.41
2023-04-26T12:40:41.737Z,44.43
2023-04-26T12:43:09.693Z,43.86
2023-04-26T12:45:37.471Z,44.30
2023-04-26T12:48:06.373Z,44.07
2023-04-26T12:50:34.308Z,42.85
2023-04-26T12:53:03.430Z,43.56
2023-04-26T12:55:32.557Z,46.26
2023-04-26T12:58:01.073Z,48.49
2023-04-26T13:00:28.817Z,46.49
2023-04-26T13:02:56.762Z,45.00
2023-04-26T13:05:25.425Z,45.61
2023-04-26T13:07:53.113Z,45.08
2023-04-26T13:10:22.185Z,45.34
2023-04-26T13:12:49.889Z,45.37
2023-04-26T13:15:18.047Z,44.51
2023-04-26T13:17:45.952Z,45.16
2023-04-26T13:20:14.370Z,46.27
2023-04-26T13:22:43.247Z,43.78
2023-04-26T13:25:13.104Z,44.97
2023-04-26T13:27:42.252Z,43.37
2023-04-26T13:30:11.178Z,42.76
2023-04-26T13:32:38.920Z,43.46
2023-04-26T13:35:07.486Z,42.88
2023-04-26T13:37:35.530Z,41.55
2023-04-26T13:40:04.338Z,40.51
2023-04-26T13:42:32.512Z,39.29
2023-04-26T13:45:06.106Z,39.03
2023-04-26T13:47:33.800Z,37.96
2023-04-26T13:50:01.538Z,35.95
2023-04-26T13:52:29.270Z,37.15
2023-04-26T13:54:56.956Z,36.79
2023-04-26T13:57:24.682Z,37.76
2023-04-26T13:59:52.410Z,39.07
2023-04-26T14:02:22.173Z,39.00
2023-04-26T14:04:50.430Z,40.35
2023-04-26T14:07:18.149Z,41.43
2023-04-26T14:09:45.840Z,41.50
2023-04-26T14:12:13.559Z,43.46
2023-04-26T14:14:41.282Z,43.12
2023-04-26T14:17:09.016Z,44.53
2023-04-26T14:19:38.111Z,43.67
2023-04-26T14:22:05.916Z,43.97
2023-04-26T14:24:33.591Z,45.33
2023-04-26T14:27:03.192Z,44.65
2023-04-26T14:29:31.036Z,45.36
2023-04-26T14:31:58.810Z,46.17
2023-04-26T14:34:27.135Z,45.49
2023-04-26T14:37:00.927Z,45.15
2023-04-26T14:39:28.621Z,44.55
2023-04-26T14:41:56.928Z,45.79
2023-04-26T14:44:24.631Z,46.90
2023-04-26T14:46:52.593Z,47.44
2023-04-26T14:49:20.708Z,48.47
2023-04-26T14:51:49.406Z,48.18
2023-04-26T14:54:19.257Z,47.55
2023-04-26T14:56:46.915Z,46.64
2023-04-26T14:59:14.675Z,47.61
2023-04-26T15:02:36.862Z,47.59
2023-04-26T15:05:06.072Z,45.86
2023-04-26T15:07:33.905Z,46.15
2023-04-26T15:10:01.948Z,45.33
2023-04-26T15:12:29.692Z,47.12
2023-04-26T15:14:57.442Z,49.40
2023-04-26T15:17:25.240Z,49.52
2023-04-26T15:19:54.550Z,49.76
2023-04-26T15:22:22.290Z,48.12
2023-04-26T15:24:51.051Z,47.22
2023-04-26T15:27:18.879Z,47.90
2023-04-26T15:29:46.597Z,47.14
2023-04-26T15:32:14.376Z,47.07
2023-04-26T15:34:45.133Z,47.25
2023-04-26T15:37:14.281Z,48.38
2023-04-26T15:39:41.978Z,49.95
2023-04-26T15:42:09.951Z,49.63
2023-04-26T15:44:37.841Z,49.39
2023-04-26T15:47:05.912Z,47.62
2023-04-26T15:49:33.730Z,47.08
2023-04-26T15:52:01.443Z,47.36
2023-04-26T15:54:30.467Z,47.73
2023-04-26T15:56:58.247Z,47.58
2023-04-26T15:59:26.383Z,47.10
2023-04-26T16:01:54.217Z,46.35
2023-04-26T16:04:22.580Z,46.11
2023-04-26T16:06:50.418Z,45.31
2023-04-26T16:11:52.313Z,46.36
2023-04-26T16:14:20.064Z,48.10
2023-04-26T16:16:47.782Z,49.50
2023-04-26T16:19:16.390Z,48.07
2023-04-26T16:21:44.151Z,47.04
2023-04-26T16:24:12.346Z,46.70
2023-04-26T16:26:40.081Z,47.68
2023-04-26T16:29:09.716Z,50.18
2023-04-26T16:31:37.457Z,49.62
2023-04-26T16:34:05.146Z,49.79
2023-04-26T16:36:32.985Z,50.07
2023-04-26T16:39:00.772Z,48.48
2023-04-26T16:41:28.604Z,47.94
2023-04-26T16:43:56.322Z,47.71
2023-04-26T16:46:25.409Z,47.17
2023-04-26T16:48:53.174Z,47.88
2023-04-26T16:51:20.863Z,49.09
2023-04-26T16:53:48.568Z,47.03
2023-04-26T16:56:16.363Z,48.67
2023-04-26T16:58:44.174Z,49.48
2023-04-26T17:01:12.072Z,49.40
2023-04-26T17:03:41.440Z,49.17
2023-04-26T17:06:11.139Z,50.71
2023-04-26T17:08:38.988Z,51.49
2023-04-26T17:11:06.693Z,52.94
2023-04-26T17:13:35.086Z,55.10
2023-04-26T17:16:02.826Z,56.65
2023-04-26T17:18:30.694Z,57.88
2023-04-26T17:20:59.824Z,56.21
2023-04-26T17:23:27.590Z,57.53
2023-04-26T17:25:55.533Z,58.65
2023-04-26T17:28:23.268Z,57.39
2023-04-26T17:30:51.054Z,59.26
2023-04-26T17:33:19.158Z,57.33
2023-04-26T17:35:47.388Z,58.14
2023-04-26T17:38:16.425Z,58.47
2023-04-26T17:40:44.128Z,59.92
2023-04-26T17:43:11.940Z,58.05
2023-04-26T17:45:39.626Z,57.07
2023-04-26T17:48:11.045Z,59.41
2023-04-26T17:50:38.859Z,58.75
2023-04-26T17:53:07.176Z,58.01
2023-04-26T17:55:36.500Z,58.21
2023-04-26T17:58:04.447Z,57.48
2023-04-26T18:00:32.258Z,57.26
2023-04-26T18:03:02.957Z,57.69
2023-04-26T18:05:30.803Z,55.84
2023-04-26T18:07:58.873Z,56.45
2023-04-26T18:10:26.699Z,56.25
2023-04-26T18:12:55.811Z,55.65
2023-04-26T18:15:23.876Z,56.01
2023-04-26T18:17:51.661Z,55.48
2023-04-26T18:20:19.394Z,55.39
2023-04-26T18:22:47.123Z,55.64
2023-04-26T18:25:15.503Z,55.44
2023-04-26T18:27:43.313Z,55.39
2023-04-26T18:30:13.754Z,55.77
2023-04-26T18:32:41.578Z,56.14
2023-04-26T18:35:09.934Z,55.36
2023-04-26T18:37:37.950Z,55.62
2023-04-26T18:40:07.401Z,55.50
2023-04-26T18:42:35.129Z,56.07
2023-04-26T18:45:03.119Z,56.52
2023-04-26T18:47:32.199Z,60.21
2023-04-26T18:50:00.015Z,63.41
2023-04-26T18:52:27.754Z,64.74
2023-04-26T18:54:55.401Z,66.52
2023-04-26T18:57:23.217Z,66.89
2023-04-26T18:59:50.965Z,67.32
2023-04-26T19:02:18.772Z,67.84
2023-04-26T19:04:50.459Z,65.43
2023-04-26T19:07:18.523Z,64.11
2023-04-26T19:09:54.351Z,63.77
2023-04-26T19:12:22.597Z,65.48
2023-04-26T19:14:50.349Z,65.68
2023-04-26T19:17:17.995Z,64.61
2023-04-26T19:19:47.044Z,65.92
2023-04-26T19:22:14.908Z,65.19
2023-04-26T19:24:42.723Z,64.44
2023-04-26T19:27:11.347Z,64.92
2023-04-26T19:29:39.112Z,65.18
2023-04-26T19:32:07.072Z,65.44
2023-04-26T19:34:34.988Z,66.38
2023-04-26T19:37:04.169Z,66.06
2023-04-26T19:39:31.906Z,69.11
2023-04-26T19:42:01.287Z,69.14
2023-04-26T19:44:29.024Z,70.30
2023-04-26T19:46:56.831Z,70.48
2023-04-26T19:49:25.414Z,70.26
2023-04-26T19:51:54.357Z,70.44
2023-04-26T19:54:23.661Z,70.23
2023-04-26T19:56:51.562Z,72.48
2023-04-26T19:59:19.328Z,73.91
2023-04-26T20:01:47.103Z,73.96
2023-04-26T20:04:15.064Z,74.49
2023-04-26T20:06:42.896Z,75.47
2023-04-26T20:09:10.844Z,77.01
2023-04-26T20:11:40.135Z,76.27
2023-04-26T20:14:07.847Z,75.61
2023-04-26T20:16:35.620Z,75.32
2023-04-26T20:19:03.423Z,75.77
2023-04-26T20:21:31.214Z,74.09
2023-04-26T20:23:58.964Z,76.41
2023-04-26T20:26:26.751Z,78.74
2023-04-26T20:28:55.907Z,78.85
2023-04-26T20:31:23.723Z,78.39
2023-04-26T20:33:51.486Z,78.21
2023-04-26T20:36:19.795Z,78.71
2023-04-26T20:38:47.599Z,79.44
2023-04-26T20:41:15.405Z,78.44
2023-04-26T20:43:43.099Z,77.56
2023-04-26T20:46:12.277Z,75.21
2023-04-26T20:48:39.977Z,72.60
2023-04-26T20:51:07.648Z,72.77
2023-04-26T20:53:35.367Z,72.06
2023-04-26T20:56:03.548Z,72.88
2023-04-26T20:58:31.372Z,72.12
2023-04-26T21:00:59.561Z,71.73
2023-04-26T21:03:29.265Z,73.09
2023-04-26T21:05:57.204Z,73.93
2023-04-26T21:08:24.944Z,73.71
2023-04-26T21:10:52.694Z,73.38
2023-04-26T21:13:20.443Z,73.71
2023-04-26T21:15:48.275Z,75.42
2023-04-26T21:18:16.037Z,76.07
2023-04-26T21:20:45.015Z,76.87
2023-04-26T21:23:12.770Z,77.00
2023-04-26T21:25:45.502Z,77.46
2023-04-26T21:28:13.315Z,78.00
2023-04-26T21:30:41.033Z,78.68
2023-04-26T21:33:09.142Z,78.82
2023-04-26T21:35:36.859Z,79.05
2023-04-26T21:38:05.925Z,79.37
2023-04-26T21:40:33.694Z,79.46
2023-04-26T21:43:05.281Z,79.89
2023-04-26T21:45:33.558Z,80.56
2023-04-26T21:48:01.360Z,80.75
2023-04-26T21:50:29.118Z,80.22
2023-04-26T21:52:56.829Z,81.15
2023-04-26T21:55:26.897Z,81.67
2023-04-26T21:57:54.684Z,81.55
2023-04-26T22:00:22.585Z,81.63
2023-04-26T22:02:51.354Z,82.01
2023-04-26T22:05:19.224Z,81.93
2023-04-26T22:07:46.846Z,81.88
2023-04-26T22:10:16.316Z,81.80
2023-04-26T22:12:45.838Z,82.04
2023-04-26T22:15:13.538Z,82.42
2023-04-26T22:17:41.360Z,82.67
2023-04-26T22:20:10.297Z,82.90
2023-04-26T22:22:38.029Z,82.84
2023-04-26T22:27:08.995Z,83.40
2023-04-26T22:29:36.692Z,84.11
2023-04-26T22:32:04.595Z,83.77
2023-04-26T22:34:32.361Z,83.42
2023-04-26T22:37:12.973Z,83.84
2023-04-26T22:39:45.393Z,83.63
2023-04-26T22:42:14.495Z,84.35
2023-04-26T22:45:05.290Z,84.34
2023-04-26T22:47:33.019Z,85.39
2023-04-26T22:50:00.825Z,85.32
2023-04-26T22:52:31.837Z,85.87
2023-04-26T22:55:00.937Z,85.98
2023-04-26T22:57:28.977Z,85.40
2023-04-26T22:59:56.632Z,85.73
2023-04-26T23:02:26.050Z,85.80
2023-04-26T23:04:53.913Z,85.83
2023-04-26T23:07:21.641Z,85.72
2023-04-26T23:09:49.345Z,85.32
2023-04-26T23:12:19.217Z,85.53
2023-04-26T23:14:47.773Z,86.10
2023-04-26T23:17:15.551Z,86.06
2023-04-26T23:19:44.566Z,86.37
2023-04-26T23:22:12.310Z,86.55
2023-04-26T23:24:40.039Z,86.79
2023-04-26T23:27:07.825Z,86.99
2023-04-26T23:29:35.636Z,86.52
2023-04-26T23:32:03.338Z,86.46
2023-04-26T23:34:31.268Z,86.81
2023-04-26T23:37:07.329Z,86.59
2023-04-26T23:39:36.348Z,87.14
2023-04-26T23:42:04.300Z,86.90
2023-04-26T23:44:32.249Z,87.71
2023-04-26T23:47:00.060Z,87.39
2023-04-26T23:49:27.808Z,87.61
2023-04-26T23:51:55.578Z,87.45
2023-04-26T23:54:24.685Z,87.96
2023-04-26T23:56:52.421Z,88.64
2023-04-26T23:59:20.125Z,88.44
